• Join FlightAware (Why Join?)
  • Login
  • US Flag 
12:32PM EDT


 

Airport Tracker/Info


-or-


 

Live Flight TrackerFlight Track Log ✈ SWA2236 ✈ 16-Sep-2013 ✈ KDTW - KMDW

Flight Track Log - Related Links

Times and Time Zones

All times are in EDT time to prevent confusion due to time zone crossing. See the SWA2236 flight status page for this flight to view local times or setup timezone preferences in your user account.

Time Position Orientation Groundspeed Altitude Reporting Facility
EDT Latitude Longitude Course Direction KTS MPH feet Rate Location/Type
07:44AM 42.2281 -83.3533 354° North 148 170 1,400  Level Cleveland Center
07:45AM 42.2633 -83.3583 354° North 181 208 3,000 2,100 Climbing Cleveland Center
07:46AM 42.2761 -83.3589 358° North 199 229 3,900 2,100 Climbing Cleveland Center
07:46AM 42.3139 -83.3822 335° Northwest 231 266 5,200 2,100 Climbing Cleveland Center
07:47AM 42.3261 -83.4092 302° West 236 272 6,100 3,600 Climbing Cleveland Center
07:48AM 42.3261 -83.5058 270° West 274 315 10,300 3,360 Climbing Cleveland Center
07:49AM 42.3156 -83.6192 263° West 297 342 13,000 2,880 Climbing Cleveland Center
07:50AM 42.3047 -83.7458 263° West 337 388 16,300 2,880 Climbing Cleveland Center
07:51AM 42.2928 -83.8764 263° West 350 403 19,000 2,700 Climbing Cleveland Center
07:52AM 42.2803 -84.0092 263° West 357 411 21,900 1,440 Climbing Cleveland Center
07:53AM 42.2647 -84.1650 262° West 351 404 22,000  Climbing Cleveland Center
07:54AM 42.2114 -84.2825 239° Southwest 368 423 22,000  Level Cleveland Center
07:55AM 42.1528 -84.3939 235° Southwest 368 423 22,000  Level Cleveland Center
07:56AM 42.0925 -84.5164 236° Southwest 363 418 22,000  Level Cleveland Center
07:57AM 42.0428 -84.6108 235° Southwest 365 420 22,000  Level Chicago Center
07:58AM 41.9839 -84.7228 235° Southwest 366 421 22,000  Level Chicago Center
07:59AM 41.9289 -84.8317 236° Southwest 368 423 22,000  Level Chicago Center
08:00AM 41.8694 -84.9436 235° Southwest 367 422 22,000  Level Chicago Center
08:01AM 41.8106 -85.0569 235° Southwest 371 427 22,000 -180 Level Chicago Center
08:02AM 41.7394 -85.1928 235° Southwest 372 428 21,700 -720 Descending Chicago Center
08:03AM 41.6633 -85.2844 222° Southwest 370 426 20,600 -1,080 Descending Chicago Center
08:04AM 41.5819 -85.3739 219° Southwest 362 417 19,500 -1,020 Descending Chicago Center
08:05AM 41.5083 -85.4606 221° Southwest 350 403 18,500 -840 Descending Chicago Center
08:06AM 41.4433 -85.5439 224° Southwest 328 377 17,800 -840 Descending Chicago Center
08:07AM 41.4592 -85.6525 281° West 307 353 16,900 -900 Descending Chicago Center
08:08AM 41.4786 -85.7725 282° West 326 375 16,000 -480 Descending Chicago Center
08:09AM 41.4994 -85.8908 283° West 327 376 16,000  Level Chicago Center
08:10AM 41.5219 -86.0142 284° West 340 391 16,000 -300 Level Chicago Center
08:11AM 41.5247 -86.1453 272° West 350 403 15,400 -1,680 Descending Chicago Center
08:12AM 41.5228 -86.2978 269° West 345 397 12,600 -2,160 Descending Chicago Center
08:13AM 41.5219 -86.4236 270° West 340 391 11,000 -780 Descending Chicago Center
08:14AM 41.5217 -86.5453 270° West 330 380 11,000 -300 Level Chicago Center
08:15AM 41.5203 -86.6636 269° West 320 368 10,500 -600 Descending Chicago Center
08:16AM 41.4936 -86.7803 253° West 311 358 9,800 -900 Descending Chicago Center
08:17AM 41.4742 -86.8814 256° West 301 346 8,700 -1,020 Descending Chicago Center
08:18AM 41.4892 -86.9842 281° West 288 331 7,700 -840 Descending Chicago Center
08:20AM 41.5075 -87.1050 281° West 279 321 7,000 -600 Descending Chicago Center
08:21AM 41.5175 -87.2067 278° West 280 322 6,500 -720 Descending Chicago Center
08:22AM 41.5144 -87.3108 268° West 282 325 5,600 -1,020 Descending Chicago Center
08:23AM 41.5125 -87.4142 269° West 282 325 4,500 -780 Descending Chicago Center
08:24AM 41.5128 -87.5150 270° West 278 320 4,000 -300 Descending Chicago Center
08:25AM 41.5369 -87.6300 286° West 274 315 4,000  Level Chicago Center
08:26AM 41.5528 -87.7269 282° West 271 312 4,000 -180 Level Chicago Center
08:27AM 41.5664 -87.8161 282° West 261 300 3,700 -720 Descending Chicago Center
08:28AM 41.5922 -87.8875 296° West 238 274 2,600 -660 Descending Chicago Center
08:29AM 41.6292 -87.9322 318° Northwest 213 245 2,400 -60 Descending Chicago Center
08:30AM 41.6722 -87.8978 31° Northeast 169 194 2,500  Climbing Chicago Center
08:31AM 41.7031 -87.8564 45° Northeast 160 184 2,500 -300 Level Chicago Center
08:32AM 41.7333 -87.8178 44° Northeast 156 180 1,900 -600 Descending Chicago Center
08:33AM 41.7567 -87.7883 43° Northeast 137 158 1,300 -480 Descending Chicago Center
08:34AM 41.7850 -87.7531 43° Northeast 130 150 1,000 -300 Descending Chicago Center
08:36AM 41.7833 -87.7500 42° Northeast  Level FlightAware Approximate